Time;durP1;ratioP1;P1;durP2;ratioP2;P2;SDS_P1;SDS_P2;PMS_P1;PMS_P2;Temp;Humidity;BMP_temperature;BMP_pressure;BME280_temperature;BME280_humidity;BME280_pressure;Samples;Min_cycle;Max_cycle;Signal;HPM_P1;HPM_P2
2022/07/06 00:00:01;;;;;;;5.47;1.70;;;;;;;-148.56;100.00;61375.16;5065160;28;20058;-33
2022/07/06 00:03:25;;;;;;;3.20;1.52;;;;;;;-148.56;100.00;61375.16;5063340;28;20096;-33
2022/07/06 00:06:49;;;;;;;3.67;1.65;;;;;;;-148.56;100.00;61375.16;5067030;28;20035;-32
2022/07/06 00:10:13;;;;;;;4.68;1.95;;;;;;;-148.56;100.00;61375.16;5067134;28;20108;-30
2022/07/06 00:13:37;;;;;;;3.10;1.38;;;;;;;-148.56;100.00;61375.16;5064087;28;20023;-31
2022/07/06 00:17:01;;;;;;;2.05;1.20;;;;;;;-148.56;100.00;61375.16;5067989;28;20028;-36
2022/07/06 00:20:25;;;;;;;2.08;1.50;;;;;;;-148.56;100.00;61375.16;5064567;28;20480;-31
2022/07/06 00:23:51;;;;;;;4.57;1.60;;;;;;;-148.56;100.00;61375.16;5060907;28;20705;-31
2022/07/06 00:27:15;;;;;;;3.80;1.50;;;;;;;-148.56;100.00;61375.16;5069337;28;20039;-31
2022/07/06 00:30:39;;;;;;;3.50;1.70;;;;;;;-148.56;100.00;61375.16;5072830;28;20472;-31
2022/07/06 00:34:03;;;;;;;3.13;1.67;;;;;;;-148.56;100.00;61375.16;5058750;28;20066;-34
2022/07/06 00:37:27;;;;;;;3.70;1.70;;;;;;;-148.56;100.00;61375.16;5068650;28;20028;-30
2022/07/06 00:40:51;;;;;;;2.85;1.58;;;;;;;-148.56;100.00;61375.16;5044234;28;20066;-31
2022/07/06 00:44:14;;;;;;;4.47;1.60;;;;;;;-148.56;100.00;61375.16;5062514;28;20122;-35
2022/07/06 00:47:38;;;;;;;6.10;2.00;;;;;;;-148.56;100.00;61375.16;5065293;28;21204;-33
2022/07/06 00:51:03;;;;;;;5.65;1.80;;;;;;;-148.56;100.00;61375.16;5067974;28;20406;-32
2022/07/06 00:54:27;;;;;;;3.67;1.73;;;;;;;-148.56;100.00;61375.16;5066570;28;20031;-34
2022/07/06 00:57:51;;;;;;;3.47;1.60;;;;;;;-148.56;100.00;61375.16;5048988;28;20039;-34
2022/07/06 01:01:16;;;;;;;3.35;1.50;;;;;;;-148.56;100.00;61375.16;5069636;28;20046;-34
2022/07/06 01:04:40;;;;;;;2.17;1.50;;;;;;;-148.56;100.00;61375.16;5066907;28;20039;-30
2022/07/06 01:08:04;;;;;;;4.22;1.70;;;;;;;-148.56;100.00;61375.16;5067301;28;20024;-34
2022/07/06 01:11:27;;;;;;;2.75;1.52;;;;;;;-148.56;100.00;61375.16;5073899;28;20153;-31
2022/07/06 01:14:51;;;;;;;5.63;1.70;;;;;;;-148.56;100.00;61375.16;5053370;28;20028;-33
2022/07/06 01:18:15;;;;;;;3.67;1.73;;;;;;;-148.56;100.00;61375.16;5067525;28;20493;-30
2022/07/06 01:21:39;;;;;;;8.05;1.83;;;;;;;-148.56;100.00;61375.16;5052872;28;20633;-32
2022/07/06 01:25:04;;;;;;;2.05;1.60;;;;;;;-148.56;100.00;61375.16;5066735;28;20032;-32
2022/07/06 01:28:27;;;;;;;3.67;1.52;;;;;;;-148.56;100.00;61375.16;5065526;28;20692;-35
2022/07/06 01:31:51;;;;;;;3.20;1.65;;;;;;;-148.56;100.00;61375.16;5069875;28;20038;-33
2022/07/06 01:35:15;;;;;;;5.75;1.80;;;;;;;-148.56;100.00;61375.16;5067094;28;20394;-30
2022/07/06 01:38:50;;;;;;;2.45;1.55;;;;;;;-148.56;100.00;61375.16;5064633;28;20032;-34
2022/07/06 01:42:14;;;;;;;1.75;1.60;;;;;;;-148.56;100.00;61375.16;5073516;28;20028;-36
2022/07/06 01:45:38;;;;;;;4.00;1.85;;;;;;;-148.56;100.00;61375.16;5072439;28;20138;-31
2022/07/06 01:49:05;;;;;;;3.20;1.77;;;;;;;-148.56;100.00;61375.16;5076771;28;20032;-30
2022/07/06 01:52:29;;;;;;;4.53;1.75;;;;;;;-148.56;100.00;61375.16;5071075;28;20051;-33
2022/07/06 01:55:53;;;;;;;3.17;1.60;;;;;;;-148.56;100.00;61375.16;5067748;28;20019;-30
2022/07/06 01:59:17;;;;;;;4.50;1.85;;;;;;;-148.56;100.00;61375.16;5062780;28;20031;-30
2022/07/06 02:02:41;;;;;;;3.83;1.67;;;;;;;-148.56;100.00;61375.16;5072172;28;20656;-30
2022/07/06 02:06:05;;;;;;;2.78;1.52;;;;;;;-148.56;100.00;61375.16;5076616;28;20121;-32
2022/07/06 02:09:29;;;;;;;5.82;1.70;;;;;;;-148.56;100.00;61375.16;5072697;28;20111;-31
2022/07/06 02:12:53;;;;;;;4.07;1.73;;;;;;;-148.56;100.00;61375.16;5075922;28;20070;-30
2022/07/06 02:16:17;;;;;;;3.35;1.65;;;;;;;-148.56;100.00;61375.16;5071341;28;21022;-32
2022/07/06 02:19:41;;;;;;;4.57;1.60;;;;;;;-148.56;100.00;61375.16;5067160;28;20035;-33
2022/07/06 02:23:05;;;;;;;3.00;1.60;;;;;;;-148.56;100.00;61375.16;5073487;28;20024;-31
2022/07/06 02:26:29;;;;;;;3.08;1.70;;;;;;;-148.56;100.00;61375.16;5079913;28;20055;-32
2022/07/06 02:29:52;;;;;;;2.75;1.63;;;;;;;-148.56;100.00;61375.16;5076313;28;20428;-36
2022/07/06 02:33:16;;;;;;;4.25;1.67;;;;;;;-148.56;100.00;61375.16;5074994;28;20070;-34
2022/07/06 02:36:40;;;;;;;3.97;1.60;;;;;;;-148.56;100.00;61375.16;5066496;28;20480;-30
2022/07/06 02:40:04;;;;;;;4.88;1.73;;;;;;;-148.56;100.00;61375.16;5063802;28;20165;-32
2022/07/06 02:43:28;;;;;;;4.35;1.80;;;;;;;-148.56;100.00;61375.16;5066928;28;20109;-35
2022/07/06 02:46:52;;;;;;;2.95;1.25;;;;;;;-148.56;100.00;61375.16;5070808;28;20176;-31
2022/07/06 02:50:16;;;;;;;3.03;1.70;;;;;;;-148.56;100.00;61375.16;5065395;28;20036;-30
2022/07/06 02:53:40;;;;;;;2.67;1.70;;;;;;;-148.56;100.00;61375.16;5079789;28;20034;-31
2022/07/06 02:57:04;;;;;;;3.22;1.50;;;;;;;-148.56;100.00;61375.16;5071476;28;20075;-30
2022/07/06 03:00:28;;;;;;;4.18;1.60;;;;;;;-148.56;100.00;61375.16;5069849;28;20039;-32
2022/07/06 03:03:52;;;;;;;3.55;1.40;;;;;;;-148.56;100.00;61375.16;5072677;28;20560;-33
2022/07/06 03:07:15;;;;;;;3.42;1.65;;;;;;;-148.56;100.00;61375.16;5068799;28;20035;-35
2022/07/06 03:10:39;;;;;;;3.17;1.52;;;;;;;-148.56;100.00;61375.16;5070430;28;20085;-32
2022/07/06 03:14:03;;;;;;;3.72;1.52;;;;;;;-148.56;100.00;61375.16;5071280;28;20058;-34
2022/07/06 03:17:27;;;;;;;4.00;1.58;;;;;;;-148.56;100.00;61375.16;5066127;28;20469;-28
2022/07/06 03:20:51;;;;;;;3.13;1.67;;;;;;;-148.56;100.00;61375.16;5064858;28;20036;-32
2022/07/06 03:24:15;;;;;;;4.47;1.95;;;;;;;-148.56;100.00;61375.16;5066438;28;20831;-33
2022/07/06 03:27:39;;;;;;;5.30;1.67;;;;;;;-148.56;100.00;61375.16;5073454;28;20070;-29
2022/07/06 03:31:03;;;;;;;3.45;1.58;;;;;;;-148.56;100.00;61375.16;5066959;28;22479;-34
2022/07/06 03:34:27;;;;;;;3.92;1.58;;;;;;;-148.56;100.00;61375.16;5070135;28;20066;-32
2022/07/06 03:37:51;;;;;;;4.72;1.58;;;;;;;-148.56;100.00;61375.16;5075109;28;20042;-30
2022/07/06 03:41:14;;;;;;;2.63;1.55;;;;;;;-148.56;100.00;61375.16;5068513;28;20104;-32
2022/07/06 03:44:38;;;;;;;3.55;1.40;;;;;;;-148.56;100.00;61375.16;5072157;28;20055;-32
2022/07/06 03:48:02;;;;;;;2.00;1.50;;;;;;;-148.56;100.00;61375.16;5072206;28;20032;-30
2022/07/06 03:51:26;;;;;;;3.72;1.70;;;;;;;-148.56;100.00;61375.16;5069091;28;20051;-30
2022/07/06 03:54:50;;;;;;;4.25;2.25;;;;;;;-148.56;100.00;61375.16;5070520;28;21953;-33
2022/07/06 03:58:14;;;;;;;3.55;1.73;;;;;;;-148.56;100.00;61375.16;5072122;28;20130;-33
2022/07/06 04:01:37;;;;;;;3.05;1.67;;;;;;;-148.56;100.00;61375.16;5067328;28;20082;-33
2022/07/06 04:05:01;;;;;;;3.28;1.70;;;;;;;-148.56;100.00;61375.16;5069169;28;20546;-30
2022/07/06 04:08:25;;;;;;;4.47;1.60;;;;;;;-148.56;100.00;61375.16;5076876;28;20031;-42
2022/07/06 04:11:49;;;;;;;3.35;1.48;;;;;;;-148.56;100.00;61375.16;5073987;28;20143;-31
2022/07/06 04:15:13;;;;;;;2.30;1.55;;;;;;;-148.56;100.00;61375.16;5072411;28;21043;-37
2022/07/06 04:18:37;;;;;;;2.60;1.48;;;;;;;-148.56;100.00;61375.16;5080850;28;20136;-33
2022/07/06 04:22:01;;;;;;;2.78;1.90;;;;;;;-148.56;100.00;61375.16;5062859;28;20031;-30
2022/07/06 04:25:25;;;;;;;4.55;1.85;;;;;;;-148.56;100.00;61375.16;5066511;28;20027;-30
2022/07/06 04:28:49;;;;;;;3.00;1.50;;;;;;;-148.56;100.00;61375.16;5074297;28;20073;-30
2022/07/06 04:32:13;;;;;;;3.38;1.60;;;;;;;-148.56;100.00;61375.16;5067278;28;20135;-34
2022/07/06 04:35:36;;;;;;;4.03;1.70;;;;;;;-148.56;100.00;61375.16;5070320;28;20039;-33
2022/07/06 04:39:00;;;;;;;3.03;1.70;;;;;;;-148.56;100.00;61375.16;5066320;28;20617;-31
2022/07/06 04:42:24;;;;;;;4.50;1.95;;;;;;;-148.56;100.00;61375.16;5072989;28;20127;-30
2022/07/06 04:45:48;;;;;;;4.40;1.90;;;;;;;-148.56;100.00;61375.16;5069845;28;20066;-34
2022/07/06 04:49:12;;;;;;;6.50;1.90;;;;;;;-148.56;100.00;61375.16;5067141;28;20774;-31
2022/07/06 04:52:36;;;;;;;6.60;1.98;;;;;;;-148.56;100.00;61375.16;5077742;28;20131;-30
2022/07/06 04:56:00;;;;;;;5.35;1.90;;;;;;;-148.56;100.00;61375.16;5074965;28;20319;-31
2022/07/06 04:59:23;;;;;;;4.75;1.95;;;;;;;-148.56;100.00;61375.16;5064088;28;20850;-32
2022/07/06 05:02:47;;;;;;;3.65;2.10;;;;;;;-148.56;100.00;61375.16;5071299;28;20040;-30
2022/07/06 05:06:11;;;;;;;5.85;2.17;;;;;;;-148.56;100.00;61375.16;5068371;28;20812;-31
2022/07/06 05:09:35;;;;;;;4.90;2.17;;;;;;;-148.56;100.00;61375.16;5067123;28;20081;-35
2022/07/06 05:12:59;;;;;;;5.18;1.92;;;;;;;-148.56;100.00;61375.16;5065029;28;20530;-32
2022/07/06 05:16:23;;;;;;;5.40;2.10;;;;;;;-148.56;100.00;61375.16;5073427;28;20050;-31
2022/07/06 05:19:47;;;;;;;6.68;2.45;;;;;;;-148.56;100.00;61375.16;5068899;28;20078;-30
2022/07/06 05:23:10;;;;;;;6.75;2.30;;;;;;;-148.56;100.00;61375.16;5064197;28;20032;-35
2022/07/06 05:26:34;;;;;;;4.55;2.15;;;;;;;-148.56;100.00;61375.16;5066525;28;20031;-34
2022/07/06 05:29:58;;;;;;;4.95;1.90;;;;;;;-148.56;100.00;61375.16;5065905;28;20028;-33
2022/07/06 05:33:22;;;;;;;5.88;1.98;;;;;;;-148.56;100.00;61375.16;5068734;28;20114;-32
2022/07/06 05:36:46;;;;;;;4.72;2.05;;;;;;;-148.56;100.00;61375.16;5077902;28;20031;-30
2022/07/06 05:40:10;;;;;;;5.65;2.05;;;;;;;-148.56;100.00;61375.16;5069216;28;20077;-33
2022/07/06 05:43:37;;;;;;;4.97;2.00;;;;;;;-148.56;100.00;61375.16;5065329;28;20074;-38
2022/07/06 05:50:45;;;;;;;8.32;2.10;;;;;;;-148.56;100.00;61375.16;5044920;28;20047;-35
2022/07/06 05:54:09;;;;;;;9.60;2.25;;;;;;;-148.56;100.00;61375.16;5076513;28;20039;-35
2022/07/06 05:57:33;;;;;;;7.82;2.00;;;;;;;-148.56;100.00;61375.16;5071299;28;20048;-32
2022/07/06 06:00:57;;;;;;;7.50;2.00;;;;;;;-148.56;100.00;61375.16;5070378;28;20034;-31
2022/07/06 06:04:20;;;;;;;13.30;2.30;;;;;;;-148.56;100.00;61375.16;5065059;28;20059;-38
2022/07/06 06:07:48;;;;;;;13.02;2.45;;;;;;;-148.56;100.00;61375.16;5074171;28;20229;-30
2022/07/06 06:11:12;;;;;;;13.07;2.25;;;;;;;-148.56;100.00;61375.16;5065203;28;20036;-33
2022/07/06 06:14:36;;;;;;;11.13;2.40;;;;;;;-148.56;100.00;61375.16;5079034;28;20120;-31
2022/07/06 06:18:00;;;;;;;12.13;2.42;;;;;;;-148.56;100.00;61375.16;5067225;28;20024;-31
2022/07/06 06:21:24;;;;;;;11.32;2.42;;;;;;;-148.56;100.00;61375.16;5068421;28;20035;-31
2022/07/06 06:24:49;;;;;;;9.65;2.28;;;;;;;-148.56;100.00;61375.16;5068055;28;20020;-29
2022/07/06 06:28:13;;;;;;;12.20;2.58;;;;;;;-148.56;100.00;61375.16;5072605;28;20141;-30
2022/07/06 06:31:37;;;;;;;13.55;2.83;;;;;;;-148.56;100.00;61375.16;5070527;28;20516;-30
2022/07/06 06:35:00;;;;;;;10.70;2.42;;;;;;;-148.56;100.00;61375.16;5061025;28;20158;-30
2022/07/06 06:38:29;;;;;;;9.68;2.70;;;;;;;-148.56;100.00;61375.16;5070395;28;20027;-30
2022/07/06 06:41:53;;;;;;;12.48;3.30;;;;;;;-148.56;100.00;61375.16;5068238;28;20036;-31
2022/07/06 06:45:17;;;;;;;9.25;2.60;;;;;;;-148.56;100.00;61375.16;5060512;28;20031;-30
2022/07/06 06:48:40;;;;;;;12.85;2.80;;;;;;;-148.56;100.00;61375.16;5070043;28;20040;-29
2022/07/06 06:52:04;;;;;;;7.15;2.70;;;;;;;-148.56;100.00;61375.16;5070199;28;20020;-26
2022/07/06 06:55:28;;;;;;;13.50;2.45;;;;;;;-148.56;100.00;61375.16;5071582;28;20545;-28
2022/07/06 06:58:52;;;;;;;11.70;2.03;;;;;;;-148.56;100.00;61375.16;5065814;28;20050;-28
2022/07/06 07:02:16;;;;;;;7.43;1.75;;;;;;;-148.56;100.00;61375.16;5058751;28;20097;-28
2022/07/06 07:05:40;;;;;;;4.20;2.03;;;;;;;-148.56;100.00;61375.16;5071228;28;20781;-28
2022/07/06 07:09:04;;;;;;;7.65;1.80;;;;;;;-148.56;100.00;61375.16;5067791;28;20047;-32
2022/07/06 07:12:28;;;;;;;3.78;1.90;;;;;;;-148.56;100.00;61375.16;5071789;28;20039;-29
2022/07/06 07:15:52;;;;;;;5.25;2.13;;;;;;;-148.56;100.00;61375.16;5064595;28;20039;-30
2022/07/06 07:19:16;;;;;;;5.75;1.60;;;;;;;-148.56;100.00;61375.16;5068256;28;20024;-35
2022/07/06 07:22:40;;;;;;;4.97;2.00;;;;;;;-148.56;100.00;61375.16;5067705;28;20051;-29
2022/07/06 07:26:04;;;;;;;4.15;1.90;;;;;;;-148.56;100.00;61375.16;5074172;28;20581;-29
2022/07/06 07:29:28;;;;;;;5.07;1.70;;;;;;;-148.56;100.00;61375.16;5074022;28;20553;-32
2022/07/06 07:32:52;;;;;;;6.43;1.92;;;;;;;-148.56;100.00;61375.16;5068675;28;20031;-29
2022/07/06 07:36:16;;;;;;;3.45;1.50;;;;;;;-148.56;100.00;61375.16;5067996;28;20024;-30
2022/07/06 07:39:39;;;;;;;4.30;1.83;;;;;;;-148.56;100.00;61375.16;5069990;28;20936;-29
2022/07/06 07:43:03;;;;;;;6.60;1.83;;;;;;;-148.56;100.00;61375.16;5070956;28;20031;-29
2022/07/06 07:46:27;;;;;;;6.78;1.73;;;;;;;-148.56;100.00;61375.16;5072691;28;20035;-33
2022/07/06 07:49:51;;;;;;;5.65;1.70;;;;;;;-148.56;100.00;61375.16;5072738;28;20028;-31
2022/07/06 07:53:15;;;;;;;5.00;1.75;;;;;;;-148.56;100.00;61375.16;5068368;28;20030;-29
2022/07/06 07:56:42;;;;;;;5.55;1.90;;;;;;;-148.56;100.00;61375.16;5077180;28;20024;-29
2022/07/06 08:00:06;;;;;;;5.90;1.80;;;;;;;-148.56;100.00;61375.16;5061315;28;20055;-29
2022/07/06 08:03:31;;;;;;;4.55;1.67;;;;;;;-148.56;100.00;61375.16;5067838;28;20032;-33
2022/07/06 08:06:55;;;;;;;4.60;1.60;;;;;;;-148.56;100.00;61375.16;5071592;28;20103;-29
2022/07/06 08:10:19;;;;;;;4.68;1.50;;;;;;;-148.56;100.00;61375.16;5069788;28;20035;-29
2022/07/06 08:13:43;;;;;;;2.97;1.52;;;;;;;-148.56;100.00;61375.16;5065299;28;20062;-30
2022/07/06 08:17:07;;;;;;;5.00;1.60;;;;;;;-148.56;100.00;61375.16;5071057;28;20034;-31
2022/07/06 08:20:30;;;;;;;3.78;1.65;;;;;;;-148.56;100.00;61375.16;5062997;28;20035;-31
2022/07/06 08:23:54;;;;;;;2.05;1.40;;;;;;;-148.56;100.00;61375.16;5065912;28;20040;-30
2022/07/06 08:27:18;;;;;;;2.58;1.33;;;;;;;-148.56;100.00;61375.16;5060667;28;20114;-30
2022/07/06 08:30:42;;;;;;;18.60;2.40;;;;;;;-148.56;100.00;61375.16;5058638;28;20841;-29
2022/07/06 08:34:06;;;;;;;5.82;2.00;;;;;;;-148.56;100.00;61375.16;5067134;28;20047;-30
2022/07/06 08:37:30;;;;;;;6.97;2.40;;;;;;;-148.56;100.00;61375.16;5072353;28;20302;-31
2022/07/06 08:40:54;;;;;;;6.60;2.05;;;;;;;-148.56;100.00;61375.16;5065380;28;20040;-30
2022/07/06 08:44:18;;;;;;;6.63;2.22;;;;;;;-148.56;100.00;61375.16;5053242;28;21070;-32
2022/07/06 08:47:42;;;;;;;10.48;2.22;;;;;;;-148.56;100.00;61375.16;5065586;28;20055;-30
2022/07/06 08:51:06;;;;;;;7.32;2.25;;;;;;;-148.56;100.00;61375.16;5054804;28;20036;-30
2022/07/06 08:54:31;;;;;;;12.15;2.63;;;;;;;-148.56;100.00;61375.16;5060754;28;20080;-29
2022/07/06 08:57:55;;;;;;;11.65;2.78;;;;;;;-148.56;100.00;61375.16;5074829;28;20027;-29
2022/07/06 09:01:19;;;;;;;12.77;2.58;;;;;;;-148.56;100.00;61375.16;5066275;28;20054;-31
2022/07/06 09:04:44;;;;;;;13.85;2.53;;;;;;;-148.56;100.00;61375.16;5067760;28;20031;-29
2022/07/06 09:08:08;;;;;;;11.90;2.13;;;;;;;-148.56;100.00;61375.16;5073898;28;20024;-30
2022/07/06 09:11:32;;;;;;;5.97;2.28;;;;;;;-148.56;100.00;61375.16;5066075;28;20047;-30
2022/07/06 09:14:56;;;;;;;4.47;1.67;;;;;;;-148.56;100.00;61375.16;5070742;28;20027;-30
2022/07/06 09:18:21;;;;;;;5.40;2.10;;;;;;;-148.56;100.00;61375.16;5067329;28;20036;-30
2022/07/06 09:21:45;;;;;;;11.88;2.20;;;;;;;-148.56;100.00;61375.16;5069244;28;20119;-29
2022/07/06 09:25:14;;;;;;;9.43;2.30;;;;;;;-148.56;100.00;61375.16;5080230;28;20039;-33
2022/07/06 09:28:42;;;;;;;12.02;2.30;;;;;;;-148.56;100.00;61375.16;5085725;28;20040;-30
2022/07/06 09:32:06;;;;;;;9.25;2.40;;;;;;;-148.56;100.00;61375.16;5085604;28;20119;-29
2022/07/06 09:35:45;;;;;;;6.78;2.28;;;;;;;-148.56;100.00;61375.16;5080880;28;20676;-30
2022/07/06 09:39:18;;;;;;;7.20;2.40;;;;;;;-148.56;100.00;61375.16;5076537;28;20038;-30
2022/07/06 09:42:42;;;;;;;7.82;2.13;;;;;;;-148.56;100.00;61375.16;5078824;28;20482;-30
2022/07/06 09:46:07;;;;;;;7.78;2.53;;;;;;;-148.56;100.00;61375.16;5079778;28;20509;-29
2022/07/06 09:49:30;;;;;;;4.97;2.10;;;;;;;-148.56;100.00;61375.16;5073791;28;20674;-35
2022/07/06 09:52:55;;;;;;;6.72;2.47;;;;;;;-148.56;100.00;61375.16;5077766;28;20027;-29
2022/07/06 09:56:20;;;;;;;6.22;2.03;;;;;;;-148.56;100.00;61375.16;5082138;28;20821;-31
2022/07/06 09:59:44;;;;;;;4.63;1.95;;;;;;;-148.56;100.00;61375.16;5081076;28;20054;-31
2022/07/06 10:03:08;;;;;;;6.20;2.05;;;;;;;-148.56;100.00;61375.16;5062086;28;20106;-29
2022/07/06 10:06:34;;;;;;;8.10;2.05;;;;;;;-148.56;100.00;61375.16;5079116;28;20531;-36
2022/07/06 10:09:58;;;;;;;8.20;1.95;;;;;;;-148.56;100.00;61375.16;5076684;28;20518;-32
2022/07/06 10:13:22;;;;;;;4.22;1.80;;;;;;;-148.56;100.00;61375.16;5078966;28;20028;-33
2022/07/06 10:16:47;;;;;;;4.47;2.03;;;;;;;-148.56;100.00;61375.16;5075956;28;20565;-30
2022/07/06 10:20:11;;;;;;;5.35;2.13;;;;;;;-148.56;100.00;61375.16;5073494;28;20116;-32
2022/07/06 10:23:35;;;;;;;6.85;2.15;;;;;;;-148.56;100.00;61375.16;5068332;28;20973;-32
2022/07/06 10:26:59;;;;;;;3.38;1.75;;;;;;;-148.56;100.00;61375.16;5063578;28;20019;-32
2022/07/06 10:30:23;;;;;;;3.83;1.73;;;;;;;-148.56;100.00;61375.16;5065949;28;20529;-31
2022/07/06 10:33:47;;;;;;;6.30;2.15;;;;;;;-148.56;100.00;61375.16;5052273;28;20036;-31
2022/07/06 10:37:33;;;;;;;4.40;1.80;;;;;;;-148.56;100.00;61375.16;5050608;28;20063;-33
2022/07/06 10:41:15;;;;;;;3.10;1.83;;;;;;;-148.56;100.00;61375.16;5059277;28;21092;-31
2022/07/06 10:44:44;;;;;;;2.73;1.80;;;;;;;-148.56;100.00;61375.16;5053179;28;20460;-31
2022/07/06 10:48:11;;;;;;;4.18;1.90;;;;;;;-148.56;100.00;61375.16;5068741;28;20247;-33
2022/07/06 10:51:38;;;;;;;4.50;1.85;;;;;;;-148.56;100.00;61375.16;5074943;28;20027;-33
2022/07/06 10:55:03;;;;;;;5.05;2.10;;;;;;;-148.56;100.00;61375.16;5063982;28;20065;-29
2022/07/06 10:58:45;;;;;;;9.13;1.80;;;;;;;-148.56;100.00;61375.16;5082141;28;20032;-30
2022/07/06 11:02:13;;;;;;;5.18;1.80;;;;;;;-148.56;100.00;61375.16;5075321;28;20146;-34
2022/07/06 11:05:40;;;;;;;8.10;1.80;;;;;;;-148.56;100.00;61375.16;5080536;28;20032;-31
2022/07/06 11:09:04;;;;;;;6.90;2.10;;;;;;;-148.56;100.00;61375.16;5081411;28;20039;-32
2022/07/06 11:12:31;;;;;;;5.80;1.90;;;;;;;-148.56;100.00;61375.16;5075785;28;20320;-34
2022/07/06 11:16:02;;;;;;;5.97;2.20;;;;;;;-148.56;100.00;61375.16;5079929;28;20027;-30
2022/07/06 11:19:26;;;;;;;3.90;2.05;;;;;;;-148.56;100.00;61375.16;5066337;28;20417;-34
2022/07/06 11:22:51;;;;;;;9.20;2.00;;;;;;;-148.56;100.00;61375.16;5079459;28;20027;-31
2022/07/06 11:26:15;;;;;;;6.63;1.80;;;;;;;-148.56;100.00;61375.16;5069352;28;21624;-30
2022/07/06 11:29:39;;;;;;;1.83;1.50;;;;;;;-148.56;100.00;61375.16;5063416;28;20900;-30
2022/07/06 11:33:03;;;;;;;5.78;1.73;;;;;;;-148.56;100.00;61375.16;5066734;28;20733;-32
2022/07/06 11:36:27;;;;;;;4.15;1.80;;;;;;;-148.56;100.00;61375.16;5071974;28;20035;-35
2022/07/06 11:39:51;;;;;;;5.78;1.95;;;;;;;-148.56;100.00;61375.16;5053095;28;20039;-34
2022/07/06 11:43:15;;;;;;;6.78;2.05;;;;;;;-148.56;100.00;61375.16;5067057;28;20059;-30
2022/07/06 11:46:39;;;;;;;7.90;1.80;;;;;;;-148.56;100.00;61375.16;5058006;28;20110;-33
2022/07/06 11:50:04;;;;;;;6.97;2.78;;;;;;;-148.56;100.00;61375.16;5070045;28;20138;-31
2022/07/06 11:53:28;;;;;;;14.02;5.07;;;;;;;-148.56;100.00;61375.16;5068388;28;20036;-30
2022/07/06 11:56:52;;;;;;;13.73;5.10;;;;;;;-148.56;100.00;61375.16;5069902;28;20023;-30
2022/07/06 12:00:20;;;;;;;19.67;6.38;;;;;;;-148.56;100.00;61375.16;5065656;28;20027;-29
2022/07/06 12:03:58;;;;;;;32.33;10.55;;;;;;;-148.56;100.00;61375.16;5065545;28;20389;-33
2022/07/06 12:07:22;;;;;;;19.25;8.07;;;;;;;-148.56;100.00;61375.16;5066647;28;20107;-34
2022/07/06 12:10:46;;;;;;;22.20;6.70;;;;;;;-148.56;100.00;61375.16;5067744;28;20028;-30
2022/07/06 12:14:13;;;;;;;16.15;6.18;;;;;;;-148.56;100.00;61375.16;5057881;28;20035;-32
2022/07/06 12:17:43;;;;;;;14.10;5.60;;;;;;;-148.56;100.00;61375.16;5068284;28;20043;-30
2022/07/06 12:21:08;;;;;;;16.80;5.32;;;;;;;-148.56;100.00;61375.16;5049134;28;20035;-31
2022/07/06 12:24:43;;;;;;;28.92;5.20;;;;;;;-148.56;100.00;61375.16;5063045;28;20261;-31
2022/07/06 12:28:21;;;;;;;19.42;5.20;;;;;;;-148.56;100.00;61375.16;5061526;28;20039;-32
2022/07/06 12:31:54;;;;;;;18.67;5.30;;;;;;;-148.56;100.00;61375.16;5059573;28;20040;-31
2022/07/06 12:35:25;;;;;;;13.95;5.10;;;;;;;-148.56;100.00;61375.16;5065104;28;20066;-30
2022/07/06 12:38:55;;;;;;;15.27;5.25;;;;;;;-148.56;100.00;61375.16;5048707;28;20031;-34
2022/07/06 12:42:25;;;;;;;15.45;4.90;;;;;;;-148.56;100.00;61375.16;5070838;28;20054;-35
2022/07/06 12:45:49;;;;;;;13.90;5.32;;;;;;;-148.56;100.00;61375.16;5073567;28;20666;-31
2022/07/06 12:49:14;;;;;;;14.57;5.00;;;;;;;-148.56;100.00;61375.16;5075235;28;20036;-30
2022/07/06 12:52:47;;;;;;;12.40;4.80;;;;;;;-148.56;100.00;61375.16;5078981;28;20119;-30
2022/07/06 12:56:11;;;;;;;14.70;4.82;;;;;;;-148.56;100.00;61375.16;5075290;28;20065;-33
2022/07/06 12:59:39;;;;;;;16.95;5.18;;;;;;;-148.56;100.00;61375.16;5075987;28;20315;-30
2022/07/06 13:03:03;;;;;;;17.92;5.38;;;;;;;-148.56;100.00;61375.16;5083106;28;20929;-30
2022/07/06 13:06:29;;;;;;;8.90;3.50;;;;;;;-148.56;100.00;61375.16;5062724;28;20039;-31
2022/07/06 13:09:53;;;;;;;13.63;4.07;;;;;;;-148.56;100.00;61375.16;5065318;28;20191;-36
2022/07/06 13:13:17;;;;;;;9.43;3.63;;;;;;;-148.56;100.00;61375.16;5078065;28;20070;-33
2022/07/06 13:16:41;;;;;;;11.10;4.55;;;;;;;-148.56;100.00;61375.16;5074097;28;20039;-30
2022/07/06 13:20:06;;;;;;;11.95;3.67;;;;;;;-148.56;100.00;61375.16;5061214;28;20044;-30
2022/07/06 13:23:30;;;;;;;13.60;3.50;;;;;;;-148.56;100.00;61375.16;5047780;28;20032;-34
2022/07/06 13:26:55;;;;;;;13.00;3.50;;;;;;;-148.56;100.00;61375.16;5042120;28;20047;-33
2022/07/06 13:30:18;;;;;;;9.93;2.78;;;;;;;-148.56;100.00;61375.16;5032314;28;20155;-37
2022/07/06 13:33:42;;;;;;;9.43;3.10;;;;;;;-148.56;100.00;61375.16;5038424;28;20067;-35
2022/07/06 13:37:06;;;;;;;14.85;3.03;;;;;;;-148.56;100.00;61375.16;5048882;28;20140;-33
2022/07/06 13:40:30;;;;;;;11.25;2.80;;;;;;;-148.56;100.00;61375.16;5046900;28;20028;-31
2022/07/06 13:43:54;;;;;;;12.50;2.65;;;;;;;-148.56;100.00;61375.16;5048624;28;20129;-36
2022/07/06 13:47:18;;;;;;;11.90;2.75;;;;;;;-148.56;100.00;61375.16;5046030;28;20026;-29
2022/07/06 13:50:42;;;;;;;10.95;2.58;;;;;;;-148.56;100.00;61375.16;5050044;28;20039;-33
2022/07/06 13:54:06;;;;;;;7.38;2.50;;;;;;;-148.56;100.00;61375.16;5053936;28;20043;-37
2022/07/06 13:57:30;;;;;;;8.52;2.47;;;;;;;-148.56;100.00;61375.16;5048547;28;20035;-35
2022/07/06 14:00:54;;;;;;;7.13;2.30;;;;;;;-148.56;100.00;61375.16;5051007;28;20036;-34
2022/07/06 14:04:17;;;;;;;11.27;2.30;;;;;;;-148.56;100.00;61375.16;5047007;28;20032;-34
2022/07/06 14:07:41;;;;;;;9.65;2.45;;;;;;;-148.56;100.00;61375.16;5053422;28;20062;-32
2022/07/06 14:11:06;;;;;;;7.85;2.25;;;;;;;-148.56;100.00;61375.16;5050589;28;20043;-38
2022/07/06 14:14:30;;;;;;;10.25;2.40;;;;;;;-148.56;100.00;61375.16;5045699;28;20032;-36
2022/07/06 14:17:54;;;;;;;9.18;2.53;;;;;;;-148.56;100.00;61375.16;5043079;28;20035;-34
2022/07/06 14:21:18;;;;;;;7.70;2.60;;;;;;;-148.56;100.00;61375.16;5041998;28;20032;-34
2022/07/06 14:24:42;;;;;;;4.95;2.10;;;;;;;-148.56;100.00;61375.16;5048415;28;20233;-34
2022/07/06 14:28:06;;;;;;;6.07;2.50;;;;;;;-148.56;100.00;61375.16;5050124;28;20505;-34
2022/07/06 14:31:30;;;;;;;10.90;2.40;;;;;;;-148.56;100.00;61375.16;5042830;28;20051;-35
2022/07/06 14:34:54;;;;;;;9.68;2.40;;;;;;;-148.56;100.00;61375.16;5051442;28;20051;-29
2022/07/06 14:38:18;;;;;;;10.55;2.30;;;;;;;-148.56;100.00;61375.16;5040366;28;20028;-33
2022/07/06 14:41:42;;;;;;;10.57;2.53;;;;;;;-148.56;100.00;61375.16;5053945;28;20202;-33
2022/07/06 14:45:06;;;;;;;7.75;2.00;;;;;;;-148.56;100.00;61375.16;5051732;28;20127;-30
2022/07/06 14:48:30;;;;;;;7.80;2.00;;;;;;;-148.56;100.00;61375.16;5066991;28;20557;-32
2022/07/06 14:51:54;;;;;;;7.15;1.98;;;;;;;-148.56;100.00;61375.16;5060883;28;20032;-35
2022/07/06 14:55:18;;;;;;;9.57;1.80;;;;;;;-148.56;100.00;61375.16;5057621;28;20035;-33
2022/07/06 14:58:42;;;;;;;7.30;2.00;;;;;;;-148.56;100.00;61375.16;5061153;28;20867;-31
2022/07/06 15:02:05;;;;;;;6.88;1.80;;;;;;;-148.56;100.00;61375.16;5060321;28;20079;-31
2022/07/06 15:05:30;;;;;;;4.00;1.70;;;;;;;-148.56;100.00;61375.16;5060318;28;20046;-32
2022/07/06 15:08:54;;;;;;;4.25;1.83;;;;;;;-148.56;100.00;61375.16;5058858;28;20032;-29
2022/07/06 15:12:17;;;;;;;8.40;1.70;;;;;;;-148.56;100.00;61375.16;5055997;28;20034;-33
2022/07/06 15:15:41;;;;;;;9.05;1.90;;;;;;;-148.56;100.00;61375.16;5058132;28;20142;-30
2022/07/06 15:19:07;;;;;;;3.80;1.73;;;;;;;-148.56;100.00;61375.16;5058902;28;20031;-35
2022/07/06 15:22:33;;;;;;;4.32;1.70;;;;;;;-148.56;100.00;61375.16;5060724;28;20553;-31
2022/07/06 15:25:56;;;;;;;3.70;1.20;;;;;;;-148.56;100.00;61375.16;5060928;28;20035;-28
2022/07/06 15:29:21;;;;;;;4.82;1.40;;;;;;;-148.56;100.00;61375.16;5061144;28;20038;-31